Time;durP1;ratioP1;P1;durP2;ratioP2;P2;SDS_P1;SDS_P2;PMS_P1;PMS_P2;Temp;Humidity;BMP_temperature;BMP_pressure;BME280_temperature;BME280_humidity;BME280_pressure;Samples;Min_cycle;Max_cycle;Signal;HPM_P1;HPM_P2
2022/06/11 00:00:19;;;;;;;11.23;2.75;;;;;;;17.61;81.82;101151.81;6134901;23;20458;-73
2022/06/11 00:02:45;;;;;;;11.25;2.80;;;;;;;17.60;81.82;101154.94;6161138;23;20012;-73
2022/06/11 00:05:10;;;;;;;11.60;2.83;;;;;;;17.59;81.14;101153.31;6134460;23;20006;-73
2022/06/11 00:07:36;;;;;;;10.05;2.90;;;;;;;17.56;81.56;101148.34;6160717;23;20013;-73
2022/06/11 00:10:03;;;;;;;11.38;2.75;;;;;;;17.55;82.01;101155.94;6160501;23;20005;-73
2022/06/11 00:12:28;;;;;;;15.02;2.70;;;;;;;17.53;82.50;101157.44;6134590;23;20013;-73
2022/06/11 00:14:54;;;;;;;15.35;3.13;;;;;;;17.50;81.75;101150.47;6161129;23;20013;-73
2022/06/11 00:17:20;;;;;;;13.48;3.28;;;;;;;17.48;81.44;101149.97;6160696;23;20005;-73
2022/06/11 00:19:46;;;;;;;14.70;2.83;;;;;;;17.47;81.70;101156.75;6160658;23;20080;-73
2022/06/11 00:22:11;;;;;;;11.02;2.53;;;;;;;17.47;81.69;101156.75;6160488;23;20053;-73
2022/06/11 00:24:38;;;;;;;13.60;2.83;;;;;;;17.43;82.02;101159.34;6160292;23;20005;-73
2022/06/11 00:27:04;;;;;;;8.02;2.70;;;;;;;17.41;81.92;101155.22;6160404;23;20020;-73
2022/06/11 00:29:31;;;;;;;9.38;2.70;;;;;;;17.38;81.09;101150.25;6160447;23;20017;-73
2022/06/11 00:31:56;;;;;;;10.77;2.80;;;;;;;17.39;81.04;101154.72;6134659;23;20367;-73
2022/06/11 00:34:22;;;;;;;10.90;2.75;;;;;;;17.34;81.38;101154.88;6160821;23;20009;-73
2022/06/11 00:36:47;;;;;;;12.27;2.30;;;;;;;17.30;81.41;101157.50;6134314;23;20017;-73
2022/06/11 00:39:15;;;;;;;14.13;2.40;;;;;;;17.28;81.48;101159.81;6160281;23;20438;-73
2022/06/11 00:41:41;;;;;;;9.52;2.28;;;;;;;17.26;81.81;101152.84;6134376;23;20009;-73
2022/06/11 00:44:07;;;;;;;12.98;3.38;;;;;;;17.23;81.58;101153.50;6160499;23;20379;-73
2022/06/11 00:46:34;;;;;;;11.02;2.75;;;;;;;17.18;81.45;101146.88;6160305;23;20085;-73
2022/06/11 00:49:00;;;;;;;11.25;2.50;;;;;;;17.19;81.32;101150.53;6134312;23;20014;-73
2022/06/11 00:51:26;;;;;;;12.18;2.80;;;;;;;17.15;81.69;101150.31;6110203;23;20009;-73
2022/06/11 00:53:59;;;;;;;14.35;2.60;;;;;;;17.12;81.92;101145.34;6109693;23;20037;-73
2022/06/11 00:56:28;;;;;;;12.88;2.92;;;;;;;17.09;81.82;101151.63;6134035;23;20424;-73
2022/06/11 00:58:55;;;;;;;10.52;2.88;;;;;;;17.06;81.88;101152.28;6109830;23;20413;-73
2022/06/11 01:01:21;;;;;;;11.18;2.70;;;;;;;17.05;82.83;101145.00;6158336;23;20063;-73
2022/06/11 01:03:47;;;;;;;11.95;3.08;;;;;;;17.03;81.92;101144.50;6134313;23;20005;-73
2022/06/11 01:06:45;;;;;;;10.35;2.65;;;;;;;17.04;81.95;101136.91;6159966;23;20088;-73
2022/06/11 01:09:24;;;;;;;13.32;3.20;;;;;;;17.05;82.45;101139.41;6129896;23;20047;-73
2022/06/11 01:12:05;;;;;;;14.05;2.70;;;;;;;17.04;81.95;101136.91;6134163;23;20005;-73
2022/06/11 01:14:45;;;;;;;15.15;3.22;;;;;;;16.98;81.84;101133.41;6110384;23;20053;-73
2022/06/11 01:17:10;;;;;;;12.43;2.53;;;;;;;16.97;82.15;101140.19;6160088;23;20013;-73
2022/06/11 01:19:48;;;;;;;11.20;2.58;;;;;;;16.93;82.30;101136.34;6160056;23;20331;-73
2022/06/11 01:22:44;;;;;;;13.20;2.70;;;;;;;16.90;82.57;101132.19;6159971;23;20550;-73
2022/06/11 01:25:22;;;;;;;9.75;2.92;;;;;;;16.85;82.55;101134.31;6159553;23;20040;-73
2022/06/11 01:28:03;;;;;;;12.88;2.50;;;;;;;16.80;83.24;101134.44;6160131;23;20347;-73
2022/06/11 01:30:38;;;;;;;9.57;2.63;;;;;;;16.80;83.13;101131.66;6110224;23;20051;-73
2022/06/11 01:33:15;;;;;;;10.63;2.42;;;;;;;16.77;83.00;101138.75;6110379;23;20014;-73
2022/06/11 01:35:57;;;;;;;13.18;3.05;;;;;;;16.70;83.18;101132.72;6133853;23;20009;-73
2022/06/11 01:38:30;;;;;;;9.77;2.50;;;;;;;16.70;83.04;101143.94;6133504;23;20020;-73
2022/06/11 01:41:19;;;;;;;15.30;2.90;;;;;;;16.70;82.37;101138.34;6159978;23;20005;-73
2022/06/11 01:43:46;;;;;;;10.23;2.60;;;;;;;16.63;83.09;101136.00;6111313;23;20063;-73
2022/06/11 01:46:21;;;;;;;12.25;2.83;;;;;;;16.60;84.72;101139.41;6133597;23;20012;-73
2022/06/11 01:48:57;;;;;;;8.07;2.38;;;;;;;16.63;84.13;101147.22;6159945;23;20018;-73
2022/06/11 01:51:30;;;;;;;9.70;2.60;;;;;;;16.63;83.42;101147.22;6159557;23;20009;-73
2022/06/11 01:54:25;;;;;;;12.85;2.78;;;;;;;16.62;83.25;101148.34;6159488;23;20015;-73
2022/06/11 01:57:18;;;;;;;10.80;2.85;;;;;;;16.63;83.98;101144.41;6137370;23;20141;-73
2022/06/11 01:59:54;;;;;;;12.52;2.88;;;;;;;16.64;83.65;101150.84;6159844;23;20005;-73
2022/06/11 02:02:38;;;;;;;13.73;3.00;;;;;;;16.63;82.62;101138.81;6133677;23;20010;-73
2022/06/11 02:05:18;;;;;;;14.63;2.85;;;;;;;16.61;83.08;101143.06;6159437;23;20518;-73
2022/06/11 02:07:49;;;;;;;10.25;2.72;;;;;;;16.59;83.09;101148.97;6135428;23;20009;-73
2022/06/11 02:10:30;;;;;;;9.35;2.40;;;;;;;16.55;84.55;101142.38;6159450;23;20014;-73
2022/06/11 02:13:04;;;;;;;8.30;2.53;;;;;;;16.49;85.17;101143.63;6110543;23;20013;-73
2022/06/11 02:15:43;;;;;;;13.85;2.80;;;;;;;16.50;83.53;101140.50;6182713;23;20009;-73
2022/06/11 02:18:11;;;;;;;10.05;2.38;;;;;;;16.49;83.40;101136.06;6158535;23;20081;-73
2022/06/11 02:20:46;;;;;;;11.02;2.42;;;;;;;16.45;83.55;101140.63;6133543;23;20009;-73
2022/06/11 02:23:18;;;;;;;13.20;2.75;;;;;;;16.47;84.16;101143.13;6133264;23;20009;-73
2022/06/11 02:25:46;;;;;;;9.47;2.53;;;;;;;16.45;83.22;101145.41;6133371;23;20088;-73
2022/06/11 02:28:13;;;;;;;8.82;2.47;;;;;;;16.42;83.03;101137.66;6133750;23;20006;-73
2022/06/11 02:30:40;;;;;;;12.43;2.88;;;;;;;16.43;83.37;101151.31;6084676;23;20017;-73
2022/06/11 02:33:09;;;;;;;14.55;2.97;;;;;;;16.38;83.77;101147.81;6109001;23;20010;-73
2022/06/11 02:35:42;;;;;;;11.60;2.38;;;;;;;16.37;83.96;101146.19;6109298;23;20135;-73
2022/06/11 02:38:09;;;;;;;11.20;2.80;;;;;;;16.34;83.75;101152.41;6159055;23;20049;-73
2022/06/11 02:40:47;;;;;;;10.63;2.45;;;;;;;16.30;83.88;101158.66;6159422;23;20036;-73
2022/06/11 02:43:12;;;;;;;8.52;2.60;;;;;;;16.30;84.50;101147.44;6135608;23;20002;-73
2022/06/11 02:45:38;;;;;;;10.30;2.88;;;;;;;16.30;84.02;101153.06;6159265;23;20017;-73
2022/06/11 02:48:04;;;;;;;12.80;2.80;;;;;;;16.31;84.22;101151.91;6159299;23;20010;-73
2022/06/11 02:50:31;;;;;;;8.73;2.50;;;;;;;16.33;83.62;101139.56;6159113;23;20059;-73
2022/06/11 02:52:57;;;;;;;9.90;2.30;;;;;;;16.31;84.75;101143.50;6158807;23;20087;-73
2022/06/11 02:55:22;;;;;;;10.55;2.53;;;;;;;16.28;83.76;101149.75;6159249;23;20005;-73
2022/06/11 02:57:48;;;;;;;11.63;2.38;;;;;;;16.23;85.72;101146.22;6159224;23;20017;-73
2022/06/11 03:00:16;;;;;;;11.77;2.97;;;;;;;16.21;85.89;101154.13;6133223;23;20016;-73
2022/06/11 03:02:45;;;;;;;9.90;2.30;;;;;;;16.19;85.19;101156.44;6159259;23;20020;-73
2022/06/11 03:05:11;;;;;;;9.23;2.20;;;;;;;16.19;85.01;101153.63;6158897;23;20005;-73
2022/06/11 03:07:36;;;;;;;13.90;2.58;;;;;;;16.19;84.52;101156.44;6159113;23;20006;-73
2022/06/11 03:10:02;;;;;;;9.15;2.10;;;;;;;16.19;84.94;101159.22;6158924;23;20060;-73
2022/06/11 03:12:28;;;;;;;13.82;2.65;;;;;;;16.22;84.48;101156.63;6133164;23;20063;-73
2022/06/11 03:14:53;;;;;;;10.95;2.42;;;;;;;16.22;85.16;101162.22;6159136;23;20009;-73
2022/06/11 03:17:19;;;;;;;9.73;2.42;;;;;;;16.23;84.87;101163.03;6159101;23;20002;-73
2022/06/11 03:19:45;;;;;;;12.38;2.60;;;;;;;16.21;84.68;101162.53;6158978;23;20016;-73
2022/06/11 03:22:10;;;;;;;10.43;2.33;;;;;;;16.16;85.91;101163.50;6158990;23;20009;-73
2022/06/11 03:24:36;;;;;;;9.75;2.70;;;;;;;16.07;89.33;101159.75;6158578;23;20060;-73
2022/06/11 03:27:02;;;;;;;13.85;2.55;;;;;;;16.07;87.62;101165.38;6158883;23;20352;-73
2022/06/11 03:29:27;;;;;;;12.27;2.78;;;;;;;16.01;89.78;101175.84;6158899;23;20017;-73
2022/06/11 03:31:53;;;;;;;13.80;3.03;;;;;;;15.98;90.11;101165.28;6158386;23;20010;-73
2022/06/11 03:34:18;;;;;;;11.90;2.90;;;;;;;16.01;86.94;101172.22;6158875;23;20379;-73
2022/06/11 03:36:44;;;;;;;11.15;2.47;;;;;;;15.98;88.67;101184.06;6158969;23;20005;-73
2022/06/11 03:39:11;;;;;;;10.60;2.45;;;;;;;15.99;87.41;101180.97;6158804;23;20144;-73
2022/06/11 03:41:37;;;;;;;11.27;2.80;;;;;;;16.01;86.75;101181.47;6158872;23;20380;-73
2022/06/11 03:44:02;;;;;;;8.18;2.33;;;;;;;16.04;86.81;101178.03;6158879;23;20009;-73
2022/06/11 03:46:29;;;;;;;9.30;2.10;;;;;;;16.02;87.22;101182.31;6158814;23;20016;-72
2022/06/11 03:48:55;;;;;;;10.15;2.25;;;;;;;15.99;86.87;101186.56;6133032;23;20005;-73
2022/06/11 03:51:20;;;;;;;12.85;2.28;;;;;;;16.01;86.75;101192.66;6158727;23;20012;-73
2022/06/11 03:53:46;;;;;;;12.00;2.70;;;;;;;15.99;87.69;101197.78;6158694;23;20005;-73
2022/06/11 03:56:11;;;;;;;10.35;2.55;;;;;;;16.03;86.54;101192.38;6132791;23;20002;-73
2022/06/11 03:58:37;;;;;;;10.10;2.60;;;;;;;16.00;87.83;101190.19;6158865;23;20064;-73
2022/06/11 04:01:16;;;;;;;11.70;2.42;;;;;;;16.01;86.51;101200.25;6133055;23;20009;-73
2022/06/11 04:03:55;;;;;;;11.32;2.20;;;;;;;16.04;86.36;101196.81;6158970;23;20432;-73
2022/06/11 04:06:25;;;;;;;8.15;2.00;;;;;;;16.04;86.54;101199.63;6133460;23;20010;-73
2022/06/11 04:08:51;;;;;;;10.73;2.63;;;;;;;16.02;86.64;101201.94;6158403;23;20009;-73
2022/06/11 04:11:16;;;;;;;10.73;2.53;;;;;;;16.01;87.86;101208.66;6132900;23;20028;-73
2022/06/11 04:13:42;;;;;;;9.75;2.45;;;;;;;15.97;87.01;101204.84;6158770;23;20005;-73
2022/06/11 04:16:17;;;;;;;9.70;2.35;;;;;;;15.96;87.36;101206.78;6158826;23;20125;-73
2022/06/11 04:18:44;;;;;;;10.27;2.47;;;;;;;15.93;87.46;101209.38;6134557;23;20011;-73
2022/06/11 04:21:10;;;;;;;8.13;2.30;;;;;;;15.94;87.28;101209.09;6181891;23;20009;-73
2022/06/11 04:23:36;;;;;;;12.80;1.98;;;;;;;15.95;87.35;101212.72;6158456;23;20096;-73
2022/06/11 04:26:03;;;;;;;11.07;2.60;;;;;;;15.93;86.76;101210.22;6158669;23;20010;-73
2022/06/11 04:28:30;;;;;;;10.23;2.40;;;;;;;15.92;86.27;101207.75;6158850;23;20463;-73
2022/06/11 04:30:56;;;;;;;8.63;2.30;;;;;;;15.90;86.99;101221.22;6158548;23;20020;-73
2022/06/11 04:33:22;;;;;;;9.43;2.38;;;;;;;15.88;87.18;101217.91;6158545;23;20056;-73
2022/06/11 04:35:48;;;;;;;9.30;2.17;;;;;;;15.87;87.11;101219.88;6132843;23;20006;-72
2022/06/11 04:38:14;;;;;;;10.80;2.10;;;;;;;15.89;86.67;101213.97;6159931;23;20336;-73
2022/06/11 04:40:39;;;;;;;8.32;2.00;;;;;;;15.91;87.51;101217.28;6160452;23;20010;-73
2022/06/11 04:43:05;;;;;;;7.07;1.90;;;;;;;15.91;85.94;101220.94;6160403;23;20060;-73
2022/06/11 04:45:30;;;;;;;8.95;2.00;;;;;;;15.89;86.69;101230.78;6160378;23;20006;-73
2022/06/11 04:47:55;;;;;;;8.38;2.42;;;;;;;15.91;85.95;101231.28;6160480;23;20010;-73
2022/06/11 04:50:21;;;;;;;11.50;2.47;;;;;;;15.91;87.44;101236.88;6134143;23;20009;-73
2022/06/11 04:52:47;;;;;;;13.30;2.25;;;;;;;15.88;89.21;101234.69;6160065;23;20009;-73
2022/06/11 04:55:14;;;;;;;12.02;3.05;;;;;;;15.79;90.67;101232.63;6160297;23;20005;-73
2022/06/11 04:57:40;;;;;;;9.95;2.65;;;;;;;15.78;90.96;101236.59;6134228;23;20012;-73
2022/06/11 05:00:06;;;;;;;10.77;2.70;;;;;;;15.77;89.28;101248.94;6160390;23;20308;-73
2022/06/11 05:02:32;;;;;;;7.07;2.25;;;;;;;15.80;89.02;101236.28;6160333;23;20010;-73
2022/06/11 05:04:57;;;;;;;9.05;2.28;;;;;;;15.79;92.40;101240.22;6133995;23;20010;-73
2022/06/11 05:07:22;;;;;;;8.35;1.95;;;;;;;15.80;91.24;101253.91;6134061;23;20009;-73
2022/06/11 05:09:48;;;;;;;7.65;2.08;;;;;;;15.80;90.44;101251.13;6159977;23;20013;-73
2022/06/11 05:12:14;;;;;;;12.13;2.45;;;;;;;15.80;92.82;101261.50;6160295;23;20018;-73
2022/06/11 05:14:39;;;;;;;10.55;2.13;;;;;;;15.83;91.90;101253.28;6160288;23;20532;-73
2022/06/11 05:17:05;;;;;;;9.27;1.80;;;;;;;15.88;90.70;101251.50;6160152;23;19998;-73
2022/06/11 05:19:30;;;;;;;9.13;2.42;;;;;;;15.91;93.83;101256.47;6134141;23;20008;-73
2022/06/11 05:21:56;;;;;;;9.32;2.42;;;;;;;15.94;95.76;101259.50;6160134;23;20009;-73
2022/06/11 05:24:22;;;;;;;8.27;1.90;;;;;;;16.01;95.38;101239.47;6133713;23;20037;-73
2022/06/11 05:26:53;;;;;;;8.85;2.72;;;;;;;16.13;95.02;101247.34;6160030;23;20005;-73
2022/06/11 05:29:27;;;;;;;9.80;2.08;;;;;;;16.18;94.90;101244.44;6134254;23;20076;-73
2022/06/11 05:31:53;;;;;;;10.40;2.50;;;;;;;16.29;94.29;101246.69;6159449;23;20398;-73
2022/06/11 05:34:18;;;;;;;8.82;2.45;;;;;;;16.39;93.98;101247.63;6159791;23;20013;-73
2022/06/11 05:36:44;;;;;;;11.25;2.33;;;;;;;16.49;93.47;101241.75;6159939;23;20009;-73
2022/06/11 05:39:10;;;;;;;11.02;2.47;;;;;;;16.61;93.33;101252.44;6182792;23;20013;-73
2022/06/11 05:41:35;;;;;;;10.88;2.00;;;;;;;16.74;93.43;101252.38;6160021;23;20009;-73
2022/06/11 05:44:01;;;;;;;7.78;2.30;;;;;;;16.87;91.49;101247.88;6159933;23;20016;-73
2022/06/11 05:46:27;;;;;;;7.80;2.10;;;;;;;17.04;90.48;101254.75;6159779;23;20021;-73
2022/06/11 05:49:00;;;;;;;10.95;2.00;;;;;;;17.14;89.02;101258.13;6133575;23;20427;-73
2022/06/11 05:51:28;;;;;;;11.00;2.70;;;;;;;17.28;87.29;101249.63;6134321;23;20013;-73
2022/06/11 05:53:54;;;;;;;7.97;2.00;;;;;;;17.42;87.86;101255.16;6159509;23;20016;-73
2022/06/11 05:56:19;;;;;;;6.90;2.08;;;;;;;17.47;88.40;101252.22;6159691;23;20005;-73
2022/06/11 05:58:49;;;;;;;7.43;2.10;;;;;;;17.60;86.28;101262.50;6133867;23;20061;-73
2022/06/11 06:01:19;;;;;;;7.97;2.00;;;;;;;17.71;86.50;101262.22;6133690;23;20084;-72
2022/06/11 06:03:44;;;;;;;9.95;1.88;;;;;;;17.75;85.74;101266.06;6133611;23;20382;-75
2022/06/11 06:06:10;;;;;;;8.60;2.17;;;;;;;17.80;85.79;101263.09;6159451;23;20020;-75
2022/06/11 06:08:35;;;;;;;8.75;2.42;;;;;;;17.93;84.49;101258.53;6108936;23;20379;-75
2022/06/11 06:11:01;;;;;;;8.85;2.28;;;;;;;18.04;84.23;101265.50;6085191;23;20009;-75
2022/06/11 06:16:10;;;;;;;12.45;2.55;;;;;;;18.29;82.72;101261.94;6116882;23;20013;-75
2022/06/11 06:18:36;;;;;;;11.15;2.10;;;;;;;18.39;82.94;101260.81;6133833;23;20005;-75
2022/06/11 06:21:01;;;;;;;10.95;2.30;;;;;;;18.54;81.78;101268.75;6085458;23;20013;-75
2022/06/11 06:23:26;;;;;;;16.45;2.75;;;;;;;18.62;80.74;101264.28;6108733;23;20431;-75
2022/06/11 06:25:52;;;;;;;10.65;2.63;;;;;;;18.65;80.21;101265.63;6085283;23;20415;-75
2022/06/11 06:28:17;;;;;;;14.57;2.80;;;;;;;18.75;80.20;101274.59;6084830;23;20009;-75
2022/06/11 06:30:43;;;;;;;13.95;2.70;;;;;;;18.84;79.68;101271.78;6109020;23;20013;-75
2022/06/11 06:33:08;;;;;;;13.85;2.97;;;;;;;18.86;79.21;101269.47;6109020;23;20383;-75
2022/06/11 06:35:34;;;;;;;12.23;2.20;;;;;;;18.97;78.95;101267.09;6108866;23;20021;-75
2022/06/11 06:37:59;;;;;;;14.05;2.60;;;;;;;19.07;79.52;101272.41;6133244;23;20017;-75
2022/06/11 06:40:25;;;;;;;10.70;2.38;;;;;;;19.15;77.15;101265.13;6109267;23;20016;-75
2022/06/11 06:42:51;;;;;;;11.68;2.40;;;;;;;19.25;77.20;101263.91;6109233;23;20005;-75
2022/06/11 06:45:16;;;;;;;14.23;2.58;;;;;;;19.28;76.22;101266.91;6133312;23;20013;-75
2022/06/11 06:47:42;;;;;;;12.98;2.15;;;;;;;19.35;75.89;101275.66;6085152;23;20009;-75
2022/06/11 06:50:08;;;;;;;16.73;2.90;;;;;;;19.50;75.71;101277.13;6108531;23;20067;-75
2022/06/11 06:52:33;;;;;;;12.55;2.55;;;;;;;19.55;75.94;101270.47;6132775;23;20005;-75
2022/06/11 06:54:59;;;;;;;13.60;2.72;;;;;;;19.67;75.79;101281.91;6132484;23;20014;-75
2022/06/11 06:57:24;;;;;;;15.52;3.05;;;;;;;19.82;75.00;101278.53;6133373;23;20005;-75
2022/06/11 06:59:50;;;;;;;12.55;2.33;;;;;;;20.00;74.99;101278.44;6084290;23;20005;-75
2022/06/11 07:02:15;;;;;;;12.98;2.63;;;;;;;20.10;74.03;101278.06;6085124;23;20323;-75
2022/06/11 07:04:41;;;;;;;10.85;2.22;;;;;;;20.19;72.89;101284.47;6132913;23;20009;-75
2022/06/11 07:07:06;;;;;;;11.85;1.95;;;;;;;20.32;72.23;101288.22;6108866;23;20002;-75
2022/06/11 07:09:32;;;;;;;9.13;2.20;;;;;;;20.46;72.23;101283.13;6084404;23;20378;-75
2022/06/11 07:11:57;;;;;;;9.48;2.33;;;;;;;20.53;71.70;101285.44;6084585;23;20016;-75
2022/06/11 07:14:23;;;;;;;10.95;2.30;;;;;;;20.64;71.86;101281.03;6084892;23;20002;-75
2022/06/11 07:16:51;;;;;;;8.27;2.28;;;;;;;20.65;70.56;101285.53;6132935;23;20010;-75
2022/06/11 07:19:25;;;;;;;7.05;1.70;;;;;;;20.77;70.83;101281.13;6109008;23;20040;-75
2022/06/11 07:21:52;;;;;;;9.80;1.92;;;;;;;20.90;70.23;101278.00;6110069;23;20010;-73
2022/06/11 07:24:21;;;;;;;8.15;1.50;;;;;;;20.99;67.79;101277.94;6108564;23;20010;-74
2022/06/11 07:26:49;;;;;;;10.85;2.10;;;;;;;21.10;67.43;101286.81;6132743;23;20014;-75
2022/06/11 07:29:22;;;;;;;10.55;1.77;;;;;;;21.27;68.37;101280.97;6108709;23;20076;-75
2022/06/11 07:31:49;;;;;;;8.20;1.63;;;;;;;21.40;66.07;101282.69;6109032;23;20005;-75
2022/06/11 07:34:14;;;;;;;8.57;1.85;;;;;;;21.58;64.86;101280.50;6108650;23;20519;-76
2022/06/11 07:36:40;;;;;;;9.80;1.85;;;;;;;21.74;65.33;101279.81;6108484;23;20006;-78
2022/06/11 07:39:05;;;;;;;7.97;1.98;;;;;;;21.91;65.20;101288.06;6132608;23;20008;-78
2022/06/11 07:41:31;;;;;;;11.27;1.90;;;;;;;22.12;63.64;101289.97;6132986;23;20009;-77
2022/06/11 07:43:56;;;;;;;7.97;1.60;;;;;;;22.33;61.99;101289.88;6084733;23;20375;-78
2022/06/11 07:46:22;;;;;;;11.20;1.75;;;;;;;22.48;62.52;101289.97;6084316;23;20009;-77
2022/06/11 07:48:48;;;;;;;10.77;1.83;;;;;;;22.70;62.20;101287.78;6060837;23;20052;-77
2022/06/11 07:51:18;;;;;;;10.23;1.77;;;;;;;22.94;60.75;101286.91;6084165;23;20009;-80
2022/06/11 07:53:47;;;;;;;10.93;2.08;;;;;;;23.12;59.87;101287.44;6108475;23;20010;-79
2022/06/11 07:56:12;;;;;;;7.30;1.52;;;;;;;23.31;59.19;101286.75;6158633;23;20053;-79
2022/06/11 07:58:38;;;;;;;8.90;2.03;;;;;;;23.42;59.29;101285.03;6159063;23;20356;-77
2022/06/11 08:01:05;;;;;;;12.13;2.45;;;;;;;23.46;58.97;101277.47;6182286;23;20021;-77
2022/06/11 08:03:32;;;;;;;9.07;1.80;;;;;;;23.44;58.18;101285.50;6158999;23;20029;-77
2022/06/11 08:05:58;;;;;;;11.75;2.00;;;;;;;23.47;58.72;101283.97;6108630;23;20021;-77
2022/06/11 08:08:24;;;;;;;10.50;1.70;;;;;;;23.41;57.84;101287.06;6084425;23;20005;-77
2022/06/11 08:10:50;;;;;;;9.40;2.00;;;;;;;23.37;57.61;101294.66;6108807;23;20045;-77
2022/06/11 08:13:15;;;;;;;9.88;1.70;;;;;;;23.05;56.62;101285.22;6086386;23;20010;-77
2022/06/11 08:15:42;;;;;;;5.55;1.60;;;;;;;23.05;56.94;101293.72;6086101;23;20005;-76
2022/06/11 08:18:07;;;;;;;5.70;1.40;;;;;;;23.05;57.22;101281.56;6134314;23;20025;-76
2022/06/11 08:20:33;;;;;;;8.15;1.95;;;;;;;23.09;57.85;101288.16;6110260;23;20359;-77
2022/06/11 08:22:59;;;;;;;6.10;1.35;;;;;;;23.13;57.46;101286.25;6086374;23;20068;-77
2022/06/11 08:25:24;;;;;;;6.30;1.30;;;;;;;23.19;57.55;101296.16;6086295;23;20327;-75
2022/06/11 08:27:50;;;;;;;4.07;1.25;;;;;;;23.39;58.25;101297.09;6134421;23;20005;-76
2022/06/11 08:30:17;;;;;;;11.10;1.70;;;;;;;23.53;56.83;101277.66;6086191;23;20021;-76
2022/06/11 08:32:42;;;;;;;8.15;1.33;;;;;;;23.71;56.91;101283.84;6085979;23;20014;-76
2022/06/11 08:35:08;;;;;;;9.73;1.63;;;;;;;23.95;56.41;101282.00;6086055;23;20010;-78
2022/06/11 08:37:34;;;;;;;6.47;1.50;;;;;;;24.12;55.44;101284.44;6110377;23;20006;-78
2022/06/11 08:39:59;;;;;;;6.65;1.38;;;;;;;24.36;54.39;101280.56;6086260;23;20017;-76
2022/06/11 08:42:32;;;;;;;7.53;1.65;;;;;;;24.67;53.74;101290.22;6110259;23;20353;-77
2022/06/11 08:44:59;;;;;;;7.40;1.45;;;;;;;24.87;53.52;101279.69;6135183;23;20075;-77
2022/06/11 08:47:27;;;;;;;6.40;1.30;;;;;;;25.16;53.13;101286.84;6134511;23;20075;-77
2022/06/11 08:49:52;;;;;;;7.32;1.65;;;;;;;25.37;52.94;101281.56;6134109;23;20029;-78
2022/06/11 08:52:20;;;;;;;7.07;1.40;;;;;;;25.39;51.29;101284.03;6086211;23;20656;-77
2022/06/11 08:54:46;;;;;;;7.30;1.50;;;;;;;25.42;49.40;101274.75;6109851;23;20009;-76
2022/06/11 08:57:33;;;;;;;6.00;1.33;;;;;;;25.44;48.58;101283.72;6134596;23;20001;-77
2022/06/11 09:00:10;;;;;;;8.45;1.50;;;;;;;25.55;48.92;101278.25;6134502;23;20014;-78
2022/06/11 09:02:59;;;;;;;7.53;1.55;;;;;;;25.57;49.28;101290.03;6135057;23;20010;-77
2022/06/11 09:05:48;;;;;;;4.10;1.10;;;;;;;25.59;49.25;101287.66;6108987;23;20005;-76
2022/06/11 09:08:45;;;;;;;6.00;1.02;;;;;;;25.53;48.39;101286.31;6136050;23;20016;-76
2022/06/11 09:11:22;;;;;;;6.43;1.30;;;;;;;25.58;48.30;101289.69;6133733;23;20090;-76
2022/06/11 09:14:29;;;;;;;4.50;1.15;;;;;;;25.72;49.27;101279.78;6160505;23;20096;-77
2022/06/11 09:17:25;;;;;;;5.30;1.10;;;;;;;25.90;50.15;101283.75;6129570;23;20338;-77
2022/06/11 09:20:07;;;;;;;6.25;1.10;;;;;;;26.03;50.30;101281.53;6134025;23;20005;-78
2022/06/11 09:22:39;;;;;;;4.30;1.07;;;;;;;26.17;49.88;101280.97;6109133;23;20001;-77
2022/06/11 09:25:22;;;;;;;9.30;1.88;;;;;;;26.21;51.82;101281.81;6160035;23;20033;-73
2022/06/11 09:28:01;;;;;;;13.00;2.53;;;;;;;26.27;52.20;101281.13;6109766;23;20010;-72
2022/06/11 09:30:34;;;;;;;14.10;2.05;;;;;;;26.35;51.32;101282.03;6111190;23;20018;-72
2022/06/11 09:33:14;;;;;;;9.32;1.90;;;;;;;26.41;51.12;101274.84;6110798;23;20017;-73
2022/06/11 09:36:02;;;;;;;5.00;1.55;;;;;;;26.51;50.74;101282.72;6087149;23;20010;-72
2022/06/11 09:38:38;;;;;;;8.63;2.20;;;;;;;26.54;49.29;101277.47;6161682;23;20036;-73
2022/06/11 09:41:13;;;;;;;6.85;2.72;;;;;;;26.56;48.47;101278.72;6110143;23;20002;-73
2022/06/11 09:43:39;;;;;;;8.18;1.88;;;;;;;26.63;50.08;101280.84;6134118;23;20354;-73
2022/06/11 09:46:19;;;;;;;9.18;1.95;;;;;;;26.66;50.43;101272.38;6159918;23;20088;-73
2022/06/11 09:49:11;;;;;;;7.93;2.35;;;;;;;26.81;49.60;101275.41;6134208;23;20012;-72
2022/06/11 09:51:36;;;;;;;6.20;1.80;;;;;;;26.99;49.56;101272.75;6159984;23;20446;-72
2022/06/11 09:54:11;;;;;;;5.00;1.20;;;;;;;27.10;46.09;101271.69;6108910;23;20041;-73
2022/06/11 09:56:43;;;;;;;7.60;1.75;;;;;;;27.39;47.15;101269.19;6109371;23;20016;-73
2022/06/11 09:59:35;;;;;;;4.15;1.40;;;;;;;27.69;47.47;101265.41;6134384;23;20714;-73
2022/06/11 10:02:07;;;;;;;4.63;1.30;;;;;;;28.00;43.44;101266.91;6109299;23;20017;-73
2022/06/11 10:04:40;;;;;;;4.47;1.10;;;;;;;28.31;44.43;101264.72;6133194;23;20017;-73
2022/06/11 10:07:10;;;;;;;3.70;0.90;;;;;;;28.49;43.05;101271.38;6133437;23;20006;-73
2022/06/11 10:10:08;;;;;;;8.73;1.30;;;;;;;28.57;44.13;101278.78;6109733;23;20005;-71
2022/06/11 10:12:48;;;;;;;6.18;1.30;;;;;;;28.63;42.36;101276.34;6121996;23;20047;-77
2022/06/11 10:15:40;;;;;;;5.88;0.70;;;;;;;28.72;43.31;101277.66;6111944;23;20009;-71
2022/06/11 10:18:10;;;;;;;3.65;1.23;;;;;;;28.80;42.30;101274.81;6106325;23;20309;-73
2022/06/11 10:20:43;;;;;;;4.40;1.00;;;;;;;28.95;41.30;101282.25;6133433;23;20010;-73
2022/06/11 10:23:38;;;;;;;3.42;1.25;;;;;;;29.12;41.54;101272.94;6108848;23;20017;-72
2022/06/11 10:26:26;;;;;;;4.53;1.48;;;;;;;29.30;42.11;101280.75;6111090;23;20101;-72
2022/06/11 10:29:14;;;;;;;4.03;1.10;;;;;;;29.35;42.23;101277.50;6135240;23;20089;-73
2022/06/11 10:32:06;;;;;;;6.40;1.95;;;;;;;29.37;40.90;101286.50;6109421;23;20009;-72
2022/06/11 10:34:32;;;;;;;3.00;1.20;;;;;;;29.34;39.52;101279.53;6110540;23;20013;-72
2022/06/11 10:36:59;;;;;;;2.65;0.90;;;;;;;29.37;39.57;101280.78;6108959;23;20048;-72
2022/06/11 10:39:36;;;;;;;3.67;1.98;;;;;;;29.45;39.13;101279.56;6108711;23;20084;-74
2022/06/11 10:42:21;;;;;;;5.03;2.40;;;;;;;29.47;38.88;101274.25;6157840;23;20047;-73
2022/06/11 10:44:56;;;;;;;5.28;2.20;;;;;;;29.55;38.87;101281.63;6109601;23;20006;-72
2022/06/11 10:47:34;;;;;;;3.20;1.58;;;;;;;29.55;39.63;101270.16;6108794;23;20061;-72
2022/06/11 10:50:13;;;;;;;3.78;1.00;;;;;;;29.52;40.72;101273.84;6108669;23;20380;-72
2022/06/11 10:52:50;;;;;;;5.40;0.75;;;;;;;29.55;39.73;101269.34;6159391;23;20043;-71
2022/06/11 10:55:52;;;;;;;5.32;1.23;;;;;;;29.58;38.36;101265.69;6133094;23;20017;-72
2022/06/11 10:58:57;;;;;;;3.80;0.95;;;;;;;29.60;37.36;101260.38;6133303;23;20431;-73
2022/06/11 11:01:40;;;;;;;2.58;0.70;;;;;;;29.77;37.34;101270.22;6124256;23;20339;-72
2022/06/11 11:04:26;;;;;;;2.25;0.63;;;;;;;29.90;37.44;101270.66;6108849;23;20065;-72
2022/06/11 11:07:14;;;;;;;3.92;0.80;;;;;;;29.91;36.38;101264.50;6133623;23;20068;-72
2022/06/11 11:09:40;;;;;;;3.25;0.68;;;;;;;30.09;37.03;101267.38;6108396;23;20073;-72
2022/06/11 11:12:06;;;;;;;2.95;0.93;;;;;;;30.22;35.88;101262.06;6108258;23;20439;-72
2022/06/11 11:14:40;;;;;;;2.65;0.75;;;;;;;30.34;36.04;101260.81;6108931;23;20450;-73
2022/06/11 11:17:16;;;;;;;2.70;0.70;;;;;;;30.40;36.73;101259.19;6158198;23;20327;-72
2022/06/11 11:22:38;;;;;;;3.42;0.80;;;;;;;30.55;36.10;101257.09;6116382;23;20009;-74
2022/06/11 11:25:06;;;;;;;4.10;1.88;;;;;;;30.48;35.52;101264.47;6108589;23;20060;-72
2022/06/11 11:27:41;;;;;;;5.75;2.80;;;;;;;30.42;36.29;101262.44;6085048;23;20087;-72
2022/06/11 11:30:19;;;;;;;4.00;1.50;;;;;;;30.35;36.78;101248.94;6086940;23;20087;-72
2022/06/11 11:32:45;;;;;;;2.70;1.10;;;;;;;30.34;37.00;101253.03;6133110;23;20126;-72
2022/06/11 11:35:26;;;;;;;3.25;0.93;;;;;;;30.32;36.79;101249.78;6108781;23;20040;-72
2022/06/11 11:38:03;;;;;;;2.50;0.60;;;;;;;30.29;36.87;101250.59;6108161;23;20036;-74
2022/06/11 11:40:46;;;;;;;2.65;0.70;;;;;;;30.37;37.69;101246.50;6132819;23;20025;-72
2022/06/11 11:43:11;;;;;;;1.92;0.55;;;;;;;30.49;37.48;101236.63;6111063;23;20009;-72